createdAt,value
2018-11-04T00:01:22.898Z,2.35
2018-11-04T00:03:51.673Z,3.90
2018-11-04T00:06:20.503Z,3.08
2018-11-04T00:08:49.316Z,3.50
2018-11-04T00:11:18.206Z,1.90
2018-11-04T00:13:46.942Z,2.92
2018-11-04T00:16:15.861Z,2.12
2018-11-04T00:18:44.899Z,3.08
2018-11-04T00:21:13.927Z,1.35
2018-11-04T00:23:42.803Z,2.02
2018-11-04T00:26:11.858Z,4.58
2018-11-04T00:28:41.267Z,2.37
2018-11-04T00:31:10.101Z,2.02
2018-11-04T00:33:39.143Z,2.05
2018-11-04T00:36:07.936Z,1.55
2018-11-04T00:38:36.699Z,2.55
2018-11-04T00:41:06.215Z,1.52
2018-11-04T00:43:35.300Z,1.90
2018-11-04T00:46:04.395Z,2.17
2018-11-04T00:48:33.313Z,3.30
2018-11-04T00:51:02.016Z,3.58
2018-11-04T00:53:30.970Z,1.57
2018-11-04T00:56:00.141Z,4.47
2018-11-04T00:58:28.839Z,2.92
2018-11-04T01:00:57.828Z,1.42
2018-11-04T01:03:26.922Z,1.20
2018-11-04T01:05:55.669Z,2.65
2018-11-04T01:08:24.438Z,1.50
2018-11-04T01:10:53.394Z,2.22
2018-11-04T01:13:22.354Z,1.98
2018-11-04T01:15:51.241Z,1.85
2018-11-04T01:18:20.104Z,1.60
2018-11-04T01:20:48.874Z,2.70
2018-11-04T01:23:17.622Z,2.65
2018-11-04T01:25:46.461Z,1.80
2018-11-04T01:28:15.172Z,1.50
2018-11-04T01:30:43.926Z,4.25
2018-11-04T01:33:12.669Z,3.02
2018-11-04T01:35:41.400Z,1.45
2018-11-04T01:38:10.330Z,3.55
2018-11-04T01:40:39.075Z,1.52
2018-11-04T01:43:07.863Z,2.80
2018-11-04T01:45:36.682Z,2.85
2018-11-04T01:48:05.793Z,2.80
2018-11-04T01:50:34.551Z,1.45
2018-11-04T01:53:03.320Z,1.92
2018-11-04T01:55:32.083Z,1.62
2018-11-04T01:58:00.862Z,1.95
2018-11-04T02:00:29.623Z,3.62
2018-11-04T02:02:58.396Z,2.00
2018-11-04T02:05:27.136Z,3.27
2018-11-04T02:07:55.872Z,2.30
2018-11-04T02:10:24.630Z,5.97
2018-11-04T02:12:53.637Z,1.85
2018-11-04T02:15:22.618Z,1.98
2018-11-04T02:17:51.540Z,2.15
2018-11-04T02:20:20.568Z,3.50
2018-11-04T02:22:49.406Z,3.67
2018-11-04T02:25:18.566Z,1.20
2018-11-04T02:27:47.858Z,3.12
2018-11-04T02:30:17.631Z,1.65
2018-11-04T02:32:47.204Z,2.95
2018-11-04T02:35:16.543Z,1.37
2018-11-04T02:37:45.624Z,2.95
2018-11-04T02:40:14.398Z,2.10
2018-11-04T02:42:43.288Z,2.95
2018-11-04T02:45:12.329Z,1.57
2018-11-04T02:47:41.193Z,2.77
2018-11-04T02:50:10.741Z,3.85
2018-11-04T02:52:40.319Z,1.95
2018-11-04T02:55:09.528Z,2.67
2018-11-04T02:57:38.492Z,2.35
2018-11-04T03:00:10.998Z,3.22
2018-11-04T03:02:40.057Z,3.10
2018-11-04T03:05:09.681Z,2.65
2018-11-04T03:07:38.768Z,1.50
2018-11-04T03:10:08.363Z,3.62
2018-11-04T03:12:37.368Z,1.47
2018-11-04T03:15:06.320Z,1.35
2018-11-04T03:17:35.097Z,2.12
2018-11-04T03:20:04.286Z,2.83
2018-11-04T03:22:33.401Z,2.05
2018-11-04T03:25:02.607Z,2.70
2018-11-04T03:27:31.378Z,2.50
2018-11-04T03:30:00.190Z,2.70
2018-11-04T03:32:28.925Z,0.95
2018-11-04T03:34:57.772Z,1.95
2018-11-04T03:37:26.978Z,3.42
2018-11-04T03:39:55.820Z,1.85
2018-11-04T03:42:24.941Z,1.70
2018-11-04T03:44:54.029Z,2.45
2018-11-04T03:47:22.917Z,2.12
2018-11-04T03:49:51.938Z,1.02
2018-11-04T03:52:20.837Z,2.55
2018-11-04T03:54:49.887Z,1.82
2018-11-04T03:57:19.126Z,1.95
2018-11-04T03:59:47.870Z,1.80
2018-11-04T04:02:16.596Z,2.62
2018-11-04T04:04:45.349Z,2.87
2018-11-04T04:07:14.108Z,1.85
2018-11-04T04:09:43.053Z,1.02
2018-11-04T04:12:12.097Z,2.00
2018-11-04T04:14:40.805Z,1.70
2018-11-04T04:17:09.602Z,2.65
2018-11-04T04:19:38.465Z,2.17
2018-11-04T04:22:07.410Z,1.22
2018-11-04T04:24:36.317Z,2.42
2018-11-04T04:27:05.215Z,1.65
2018-11-04T04:29:33.945Z,1.07
2018-11-04T04:32:02.755Z,1.72
2018-11-04T04:34:31.540Z,1.75
2018-11-04T04:37:00.273Z,1.62
2018-11-04T04:39:29.117Z,2.75
2018-11-04T04:41:58.047Z,1.02
2018-11-04T04:44:26.988Z,2.05
2018-11-04T04:46:56.118Z,2.65
2018-11-04T04:49:24.969Z,0.78
2018-11-04T04:51:53.824Z,1.15
2018-11-04T04:54:22.859Z,1.62
2018-11-04T04:56:51.557Z,1.82
2018-11-04T04:59:20.441Z,1.30
2018-11-04T05:01:49.445Z,1.32
2018-11-04T05:04:18.546Z,2.77
2018-11-04T05:06:47.513Z,1.77
2018-11-04T05:09:16.482Z,2.45
2018-11-04T05:11:45.567Z,1.57
2018-11-04T05:14:14.569Z,2.70
2018-11-04T05:16:43.375Z,2.83
2018-11-04T05:19:12.148Z,0.90
2018-11-04T05:21:40.908Z,3.45
2018-11-04T05:24:09.657Z,1.70
2018-11-04T05:26:38.380Z,2.65
2018-11-04T05:29:07.173Z,3.12
2018-11-04T05:31:35.944Z,1.32
2018-11-04T05:34:05.341Z,0.88
2018-11-04T05:36:34.269Z,2.42
2018-11-04T05:39:03.552Z,1.35
2018-11-04T05:41:32.505Z,1.70
2018-11-04T05:44:01.309Z,3.10
2018-11-04T05:46:30.714Z,1.37
2018-11-04T05:48:59.658Z,1.98
2018-11-04T05:51:28.655Z,3.42
2018-11-04T05:53:57.499Z,1.47
2018-11-04T05:56:26.653Z,2.33
2018-11-04T05:58:55.777Z,1.55
2018-11-04T06:01:24.895Z,1.20
2018-11-04T06:03:53.882Z,1.92
2018-11-04T06:06:22.754Z,1.12
2018-11-04T06:08:51.910Z,2.60
2018-11-04T06:11:20.905Z,3.33
2018-11-04T06:13:49.907Z,2.15
2018-11-04T06:16:18.745Z,2.17
2018-11-04T06:18:47.590Z,2.27
2018-11-04T06:21:16.527Z,2.15
2018-11-04T06:23:45.529Z,2.27
2018-11-04T06:26:14.441Z,2.83
2018-11-04T06:28:50.095Z,1.55
2018-11-04T06:31:19.015Z,3.35
2018-11-04T06:33:47.745Z,3.42
2018-11-04T06:36:17.726Z,2.02
2018-11-04T06:38:46.758Z,4.03
2018-11-04T06:41:15.871Z,1.47
2018-11-04T06:43:44.698Z,3.33
2018-11-04T06:46:13.684Z,1.37
2018-11-04T06:48:42.634Z,2.98
2018-11-04T06:51:11.731Z,1.85
2018-11-04T06:53:40.776Z,2.35
2018-11-04T06:56:09.575Z,4.72
2018-11-04T06:58:38.284Z,2.70
2018-11-04T07:01:07.305Z,2.52
2018-11-04T07:03:36.148Z,2.70
2018-11-04T07:06:04.892Z,2.33
2018-11-04T07:08:33.603Z,1.32
2018-11-04T07:11:02.590Z,1.98
2018-11-04T07:13:31.636Z,2.15
2018-11-04T07:16:00.392Z,2.80
2018-11-04T07:18:29.111Z,2.58
2018-11-04T07:20:57.975Z,2.92
2018-11-04T07:23:27.064Z,1.65
2018-11-04T07:25:55.796Z,3.37
2018-11-04T07:28:24.695Z,2.87
2018-11-04T07:30:53.469Z,3.00
2018-11-04T07:33:22.222Z,1.57
2018-11-04T07:35:51.361Z,6.05
2018-11-04T07:38:20.426Z,3.12
2018-11-04T07:40:49.133Z,4.53
2018-11-04T07:43:18.207Z,5.47
2018-11-04T07:45:47.215Z,2.30
2018-11-04T07:48:16.453Z,2.08
2018-11-04T07:50:45.260Z,2.47
2018-11-04T07:53:13.947Z,2.12
2018-11-04T07:55:42.870Z,1.82
2018-11-04T07:58:11.936Z,1.17
2018-11-04T08:00:40.721Z,1.55
2018-11-04T08:03:09.508Z,2.15
2018-11-04T08:05:38.578Z,3.27
2018-11-04T08:08:07.776Z,2.40
2018-11-04T08:10:36.688Z,1.82
2018-11-04T08:13:05.925Z,4.15
2018-11-04T08:15:34.816Z,2.58
2018-11-04T08:18:03.702Z,2.15
2018-11-04T08:20:32.417Z,2.55
2018-11-04T08:23:01.237Z,1.62
2018-11-04T08:25:30.017Z,1.07
2018-11-04T08:27:58.758Z,2.83
2018-11-04T08:30:27.561Z,1.30
2018-11-04T08:32:56.301Z,2.08
2018-11-04T08:35:25.070Z,1.27
2018-11-04T08:37:53.967Z,1.07
2018-11-04T08:40:22.910Z,2.52
2018-11-04T08:42:51.690Z,1.85
2018-11-04T08:45:20.471Z,1.57
2018-11-04T08:47:49.210Z,1.07
2018-11-04T08:50:18.086Z,1.62
2018-11-04T08:52:46.975Z,1.50
2018-11-04T08:55:15.811Z,2.02
2018-11-04T08:57:44.624Z,2.55
2018-11-04T09:00:14.908Z,2.10
2018-11-04T09:02:44.331Z,2.85
2018-11-04T09:05:13.062Z,2.10
2018-11-04T09:07:41.816Z,2.12
2018-11-04T09:10:13.777Z,2.85
2018-11-04T09:12:43.428Z,2.50
2018-11-04T09:15:12.978Z,2.35
2018-11-04T09:17:42.077Z,2.70
2018-11-04T09:20:12.949Z,1.70
2018-11-04T09:22:43.094Z,2.02
2018-11-04T09:25:12.831Z,2.72
2018-11-04T09:27:42.099Z,4.65
2018-11-04T09:30:13.662Z,2.52
2018-11-04T09:32:42.465Z,4.60
2018-11-04T09:35:11.939Z,2.50
2018-11-04T09:37:40.650Z,2.75
2018-11-04T09:40:11.457Z,2.12
2018-11-04T09:42:40.214Z,2.52
2018-11-04T09:45:09.713Z,4.45
2018-11-04T09:47:38.696Z,2.65
2018-11-04T09:50:09.235Z,3.92
2018-11-04T09:52:38.558Z,5.00
2018-11-04T09:55:08.395Z,4.97
2018-11-04T09:57:37.228Z,2.95
2018-11-04T10:00:07.362Z,4.17
2018-11-04T10:02:36.566Z,6.03
2018-11-04T10:05:07.468Z,5.20
2018-11-04T10:07:36.319Z,5.67
2018-11-04T10:10:08.321Z,7.17
2018-11-04T10:12:37.116Z,7.17
2018-11-04T10:15:07.697Z,10.10
2018-11-04T10:17:36.816Z,6.60
2018-11-04T10:20:08.078Z,7.28
2018-11-04T10:22:36.545Z,11.10
2018-11-04T10:25:06.490Z,13.15
2018-11-04T10:27:35.427Z,5.75
2018-11-04T10:30:04.387Z,5.62
2018-11-04T10:32:33.120Z,9.10
2018-11-04T10:35:01.978Z,12.23
2018-11-04T10:37:30.756Z,12.47
2018-11-04T10:39:59.681Z,12.65
2018-11-04T10:42:28.623Z,9.95
2018-11-04T10:44:57.360Z,9.53
2018-11-04T10:47:26.112Z,7.17
2018-11-04T10:49:54.921Z,7.60
2018-11-04T10:52:23.732Z,9.08
2018-11-04T10:54:52.563Z,5.78
2018-11-04T10:57:21.530Z,8.78
2018-11-04T10:59:50.411Z,7.00
2018-11-04T11:02:19.148Z,8.78
2018-11-04T11:04:47.953Z,10.00
2018-11-04T11:07:16.834Z,8.33
2018-11-04T11:09:45.667Z,7.55
2018-11-04T11:12:14.451Z,7.03
2018-11-04T11:14:43.299Z,9.28
2018-11-04T11:17:12.150Z,7.95
2018-11-04T11:19:40.957Z,8.35
2018-11-04T11:22:09.862Z,8.03
2018-11-04T11:24:40.297Z,8.53
2018-11-04T11:27:09.071Z,6.78
2018-11-04T11:29:37.875Z,7.40
2018-11-04T11:32:06.798Z,8.68
2018-11-04T11:34:35.755Z,8.33
2018-11-04T11:37:04.598Z,9.30
2018-11-04T11:39:33.362Z,8.20
2018-11-04T11:42:02.169Z,7.15
2018-11-04T11:44:31.021Z,7.87
2018-11-04T11:46:59.784Z,6.60
2018-11-04T11:49:28.663Z,9.40
2018-11-04T11:51:57.520Z,7.03
2018-11-04T11:54:26.327Z,8.10
2018-11-04T11:56:56.308Z,7.25
2018-11-04T11:59:25.172Z,8.55
2018-11-04T12:01:55.022Z,6.08
2018-11-04T12:04:25.928Z,9.85
2018-11-04T12:06:54.744Z,9.48
2018-11-04T12:09:23.858Z,8.10
2018-11-04T12:11:52.640Z,5.53
2018-11-04T12:14:21.498Z,6.15
2018-11-04T12:16:50.254Z,6.35
2018-11-04T12:19:18.985Z,7.25
2018-11-04T12:21:47.834Z,6.10
2018-11-04T12:24:16.603Z,8.13
2018-11-04T12:26:45.453Z,6.33
2018-11-04T12:29:14.282Z,6.45
2018-11-04T12:31:43.060Z,9.05
2018-11-04T12:34:11.832Z,6.53
2018-11-04T12:36:40.735Z,5.53
2018-11-04T12:39:10.719Z,4.97
2018-11-04T12:41:39.557Z,4.40
2018-11-04T12:44:08.321Z,7.62
2018-11-04T12:46:37.398Z,7.50
2018-11-04T12:49:06.300Z,7.62
2018-11-04T12:51:35.125Z,4.15
2018-11-04T12:54:03.954Z,7.15
2018-11-04T12:56:32.738Z,5.58
2018-11-04T12:59:01.515Z,5.45
2018-11-04T13:01:30.362Z,8.18
2018-11-04T13:03:59.112Z,4.60
2018-11-04T13:06:27.845Z,4.72
2018-11-04T13:08:56.610Z,5.30
2018-11-04T13:11:25.446Z,5.97
2018-11-04T13:13:54.177Z,4.83
2018-11-04T13:16:22.923Z,6.47
2018-11-04T13:18:51.708Z,4.92
2018-11-04T13:21:20.637Z,6.75
2018-11-04T13:23:49.338Z,6.37
2018-11-04T13:26:18.126Z,5.40
2018-11-04T13:28:46.849Z,5.55
2018-11-04T13:31:15.600Z,4.53
2018-11-04T13:33:44.360Z,4.37
2018-11-04T13:36:13.215Z,5.47
2018-11-04T13:38:42.095Z,4.60
2018-11-04T13:41:10.864Z,4.10
2018-11-04T13:43:39.662Z,5.22
2018-11-04T13:46:08.512Z,4.53
2018-11-04T13:48:37.354Z,3.95
2018-11-04T13:51:06.336Z,4.65
2018-11-04T13:53:35.187Z,3.55
2018-11-04T13:56:04.309Z,4.30
2018-11-04T13:58:33.144Z,4.78
2018-11-04T14:01:02.019Z,4.00
2018-11-04T14:03:30.816Z,4.12
2018-11-04T14:05:59.682Z,4.17
2018-11-04T14:08:28.522Z,3.83
2018-11-04T14:10:57.373Z,3.87
2018-11-04T14:13:26.225Z,2.77
2018-11-04T14:15:55.020Z,4.60
2018-11-04T14:18:23.857Z,4.37
2018-11-04T14:20:52.721Z,4.05
2018-11-04T14:23:21.722Z,4.17
2018-11-04T14:25:50.574Z,3.22
2018-11-04T14:28:19.442Z,3.60
2018-11-04T14:30:48.215Z,4.08
2018-11-04T14:33:17.001Z,3.92
2018-11-04T14:35:45.840Z,3.60
2018-11-04T14:38:14.639Z,4.15
2018-11-04T14:40:43.421Z,4.92
2018-11-04T14:43:12.253Z,2.58
2018-11-04T14:45:41.025Z,3.02
2018-11-04T14:48:09.818Z,4.33
2018-11-04T14:50:38.743Z,3.37
2018-11-04T14:53:07.604Z,2.45
2018-11-04T14:55:36.382Z,3.15
2018-11-04T14:58:05.903Z,3.40
2018-11-04T15:00:35.449Z,5.47
2018-11-04T15:03:06.212Z,3.67
2018-11-04T15:05:35.075Z,3.50
2018-11-04T15:08:03.973Z,4.67
2018-11-04T15:10:32.781Z,4.65
2018-11-04T15:13:01.620Z,2.77
2018-11-04T15:15:30.327Z,3.65
2018-11-04T15:17:59.126Z,3.00
2018-11-04T15:20:27.880Z,3.40
2018-11-04T15:22:56.674Z,2.10
2018-11-04T15:25:25.530Z,1.47
2018-11-04T15:27:54.262Z,2.02
2018-11-04T15:30:23.068Z,2.62
2018-11-04T15:32:51.848Z,5.22
2018-11-04T15:35:20.663Z,2.67
2018-11-04T15:37:49.412Z,3.10
2018-11-04T15:40:18.373Z,6.20
2018-11-04T15:42:47.232Z,2.40
2018-11-04T15:45:16.746Z,3.58
2018-11-04T15:47:45.546Z,2.52
2018-11-04T15:50:17.711Z,2.72
2018-11-04T15:52:46.913Z,2.20
2018-11-04T15:55:15.685Z,4.20
2018-11-04T15:57:44.627Z,2.52
2018-11-04T16:00:14.733Z,3.15
2018-11-04T16:02:47.139Z,2.62
2018-11-04T16:05:16.005Z,2.70
2018-11-04T16:07:44.786Z,2.90
2018-11-04T16:10:13.985Z,6.08
2018-11-04T16:12:43.105Z,1.65
2018-11-04T16:15:13.809Z,2.10
2018-11-04T16:17:43.490Z,2.45
2018-11-04T16:20:13.777Z,3.12
2018-11-04T16:22:43.602Z,2.58
2018-11-04T16:25:13.219Z,2.90
2018-11-04T16:27:42.853Z,4.28
2018-11-04T16:30:13.109Z,3.25
2018-11-04T16:32:41.979Z,2.62
2018-11-04T16:35:12.043Z,4.03
2018-11-04T16:37:41.824Z,2.58
2018-11-04T16:40:10.852Z,3.47
2018-11-04T16:42:40.203Z,2.25
2018-11-04T16:45:11.715Z,2.10
2018-11-04T16:47:40.643Z,2.83
2018-11-04T16:50:10.649Z,3.75
2018-11-04T16:52:39.437Z,2.95
2018-11-04T16:55:08.894Z,2.92
2018-11-04T16:57:37.713Z,2.60
2018-11-04T17:00:07.735Z,2.58
2018-11-04T17:02:36.737Z,2.65
2018-11-04T17:05:06.487Z,3.17
2018-11-04T17:07:35.205Z,2.47
2018-11-04T17:10:04.300Z,1.90
2018-11-04T17:12:33.314Z,1.92
2018-11-04T17:15:02.126Z,1.80
2018-11-04T17:17:30.928Z,2.52
2018-11-04T17:19:59.787Z,2.25
2018-11-04T17:22:28.667Z,2.50
2018-11-04T17:24:57.510Z,1.95
2018-11-04T17:27:26.370Z,2.25
2018-11-04T17:29:55.134Z,2.42
2018-11-04T17:32:24.004Z,1.55
2018-11-04T17:34:53.098Z,2.12
2018-11-04T17:37:21.904Z,4.28
2018-11-04T17:39:50.704Z,2.42
2018-11-04T17:42:20.251Z,2.62
2018-11-04T17:44:49.109Z,1.92
2018-11-04T17:47:18.090Z,2.47
2018-11-04T17:49:47.010Z,1.70
2018-11-04T17:52:16.199Z,1.77
2018-11-04T17:54:45.040Z,1.12
2018-11-04T17:57:15.348Z,1.72
2018-11-04T17:59:45.785Z,1.77
2018-11-04T18:02:14.776Z,2.08
2018-11-04T18:04:43.629Z,2.20
2018-11-04T18:07:12.657Z,1.52
2018-11-04T18:09:41.667Z,1.05
2018-11-04T18:12:10.551Z,2.67
2018-11-04T18:14:39.527Z,1.87
2018-11-04T18:17:08.279Z,2.47
2018-11-04T18:19:37.098Z,2.55
2018-11-04T18:22:06.412Z,2.52
2018-11-04T18:24:35.459Z,2.98
2018-11-04T18:27:04.722Z,1.80
2018-11-04T18:29:33.717Z,1.40
2018-11-04T18:32:03.144Z,2.92
2018-11-04T18:34:32.365Z,2.08
2018-11-04T18:37:01.418Z,1.67
2018-11-04T18:39:30.320Z,2.83
2018-11-04T18:41:59.139Z,2.40
2018-11-04T18:44:28.027Z,1.90
2018-11-04T18:46:57.953Z,3.00
2018-11-04T18:49:26.730Z,2.37
2018-11-04T18:51:55.560Z,1.82
2018-11-04T18:54:24.352Z,2.08
2018-11-04T18:56:53.310Z,2.17
2018-11-04T18:59:22.316Z,1.52
2018-11-04T19:01:51.534Z,2.02
2018-11-04T19:04:20.671Z,1.45
2018-11-04T19:06:49.712Z,2.55
2018-11-04T19:09:18.743Z,1.65
2018-11-04T19:11:47.827Z,1.87
2018-11-04T19:14:16.869Z,1.55
2018-11-04T19:16:45.929Z,1.57
2018-11-04T19:19:15.131Z,1.72
2018-11-04T19:21:43.981Z,2.30
2018-11-04T19:24:12.880Z,1.70
2018-11-04T19:26:41.963Z,1.45
2018-11-04T19:29:10.762Z,2.27
2018-11-04T19:31:39.936Z,2.05
2018-11-04T19:34:08.781Z,1.25
2018-11-04T19:36:37.926Z,1.30
2018-11-04T19:39:09.991Z,2.98
2018-11-04T19:41:39.218Z,1.77
2018-11-04T19:44:08.478Z,2.12
2018-11-04T19:46:37.754Z,1.82
2018-11-04T19:49:07.072Z,2.08
2018-11-04T19:51:36.367Z,1.25
2018-11-04T19:54:07.130Z,2.05
2018-11-04T19:56:36.188Z,1.42
2018-11-04T19:59:05.383Z,1.52
2018-11-04T20:01:34.603Z,2.72
2018-11-04T20:04:04.743Z,2.08
2018-11-04T20:06:33.623Z,1.98
2018-11-04T20:09:07.799Z,2.42
2018-11-04T20:11:36.757Z,1.20
2018-11-04T20:14:12.184Z,2.70
2018-11-04T20:16:41.062Z,1.47
2018-11-04T20:19:15.331Z,1.98
2018-11-04T20:21:44.446Z,1.50
2018-11-04T20:24:18.775Z,1.92
2018-11-04T20:26:47.720Z,3.45
2018-11-04T20:29:16.947Z,2.17
2018-11-04T20:31:51.058Z,5.05
2018-11-04T20:34:20.231Z,3.02
2018-11-04T20:36:49.466Z,2.12
2018-11-04T20:39:24.312Z,1.92
2018-11-04T20:41:53.377Z,1.75
2018-11-04T20:44:22.510Z,1.20
2018-11-04T20:46:53.609Z,2.00
2018-11-04T20:49:27.979Z,1.65
2018-11-04T20:51:56.945Z,4.30
2018-11-04T20:54:25.724Z,2.33
2018-11-04T20:56:59.899Z,1.98
2018-11-04T20:59:28.936Z,2.02
2018-11-04T21:01:57.881Z,2.98
2018-11-04T21:04:26.690Z,1.85
2018-11-04T21:06:55.557Z,2.27
2018-11-04T21:09:24.363Z,1.85
2018-11-04T21:11:53.247Z,2.52
2018-11-04T21:14:22.433Z,4.08
2018-11-04T21:16:51.582Z,4.03
2018-11-04T21:19:20.640Z,7.95
2018-11-04T21:21:49.821Z,7.78
2018-11-04T21:24:19.006Z,3.87
2018-11-04T21:26:48.185Z,5.25
2018-11-04T21:29:17.538Z,13.98
2018-11-04T21:31:46.524Z,5.78
2018-11-04T21:34:15.673Z,5.87
2018-11-04T21:36:44.836Z,4.42
2018-11-04T21:39:13.719Z,3.58
2018-11-04T21:41:43.698Z,5.83
2018-11-04T21:44:12.823Z,4.15
2018-11-04T21:46:42.014Z,5.17
2018-11-04T21:49:11.205Z,4.85
2018-11-04T21:51:40.177Z,6.60
2018-11-04T21:54:09.607Z,4.05
2018-11-04T21:56:38.932Z,6.25
2018-11-04T21:59:07.872Z,5.55
2018-11-04T22:01:37.513Z,5.20
2018-11-04T22:04:06.510Z,3.35
2018-11-04T22:06:35.372Z,4.35
2018-11-04T22:09:04.878Z,2.45
2018-11-04T22:11:36.084Z,6.30
2018-11-04T22:14:05.249Z,7.20
2018-11-04T22:16:34.327Z,11.25
2018-11-04T22:19:03.661Z,10.72
2018-11-04T22:21:32.620Z,6.85
2018-11-04T22:24:01.677Z,7.85
2018-11-04T22:26:30.810Z,11.33
2018-11-04T22:28:59.765Z,16.17
2018-11-04T22:31:28.826Z,11.63
2018-11-04T22:33:57.806Z,11.65
2018-11-04T22:36:26.848Z,13.10
2018-11-04T22:38:55.946Z,11.50
2018-11-04T22:41:25.183Z,26.20
2018-11-04T22:43:54.184Z,27.10
2018-11-04T22:46:23.267Z,26.45
2018-11-04T22:48:52.045Z,27.77
2018-11-04T22:51:20.908Z,27.55
2018-11-04T22:53:50.101Z,20.90
2018-11-04T22:56:19.112Z,24.25
2018-11-04T22:58:47.970Z,20.88
2018-11-04T23:01:16.796Z,18.17
2018-11-04T23:03:45.622Z,19.30
2018-11-04T23:06:14.677Z,18.42
2018-11-04T23:08:43.435Z,14.60
2018-11-04T23:11:12.256Z,18.65
2018-11-04T23:13:41.298Z,10.32
2018-11-04T23:16:10.127Z,15.63
2018-11-04T23:18:39.048Z,12.07
2018-11-04T23:21:07.718Z,16.05
2018-11-04T23:23:36.687Z,13.32
2018-11-04T23:26:06.209Z,13.78
2018-11-04T23:28:34.962Z,15.00
2018-11-04T23:31:03.826Z,16.07
2018-11-04T23:33:32.824Z,16.70
2018-11-04T23:36:01.869Z,10.75
2018-11-04T23:38:30.664Z,11.25
2018-11-04T23:40:59.421Z,12.47
2018-11-04T23:43:28.165Z,10.98
2018-11-04T23:45:56.922Z,9.68
2018-11-04T23:48:25.894Z,12.13
2018-11-04T23:50:54.675Z,12.40
2018-11-04T23:53:23.389Z,9.38
2018-11-04T23:55:52.143Z,8.68
2018-11-04T23:58:21.396Z,8.23
